createdAt,value
2022-12-06T00:01:02.702Z,23.5715
2022-12-06T00:16:04.630Z,23.1815
2022-12-06T00:31:06.479Z,24.5236
2022-12-06T00:46:08.325Z,24.9885
2022-12-06T01:01:10.352Z,24.7291
2022-12-06T01:16:12.321Z,25.012
2022-12-06T01:31:14.282Z,22.5742
2022-12-06T01:46:16.252Z,23.4774
2022-12-06T02:01:18.225Z,24.2283
2022-12-06T02:16:20.140Z,24.0853
2022-12-06T02:31:22.063Z,23.9584
2022-12-06T02:46:24.029Z,24.7155
2022-12-06T03:01:25.993Z,24.6963
2022-12-06T03:16:27.905Z,25.0987
2022-12-06T03:31:29.829Z,24.3422
2022-12-06T03:46:31.790Z,24.7483
2022-12-06T04:01:33.725Z,22.7624
2022-12-06T04:16:35.621Z,22.0214
2022-12-06T04:31:37.644Z,22.1737
2022-12-06T04:46:39.536Z,21.6896
2022-12-06T05:01:41.380Z,21.7608
2022-12-06T05:16:43.243Z,21.4488
2022-12-06T05:31:45.222Z,20.9449
2022-12-06T05:46:47.061Z,20.8638
2022-12-06T06:01:48.911Z,19.2351
2022-12-06T06:16:50.768Z,20.7369
2022-12-06T06:31:52.635Z,19.0271
2022-12-06T06:46:54.509Z,20.168
2022-12-06T07:01:56.526Z,19.8653
2022-12-06T07:16:58.531Z,19.8071
2022-12-06T07:32:00.418Z,19.8622
2022-12-06T07:47:02.226Z,18.387
2022-12-06T08:02:04.134Z,19.349
2022-12-06T08:17:06.028Z,19.0333
2022-12-06T08:32:07.826Z,18.9553
2022-12-06T08:47:09.681Z,19.3323
2022-12-06T09:02:11.604Z,18.2174
2022-12-06T09:17:13.483Z,19.0661
2022-12-06T09:32:15.342Z,18.7182
2022-12-06T09:47:17.180Z,17.8534
2022-12-06T10:02:19.151Z,19.5044
2022-12-06T10:17:21.067Z,18.6334
2022-12-06T10:32:22.873Z,19.2964
2022-12-06T10:47:24.684Z,19.0234
2022-12-06T11:02:26.611Z,17.8082
2022-12-06T11:17:28.505Z,19.1794
2022-12-06T11:32:30.346Z,18.8185
2022-12-06T11:47:32.153Z,18.2075
2022-12-06T12:02:34.036Z,19.3515
2022-12-06T12:17:35.936Z,18.4514
2022-12-06T12:32:37.811Z,18.7343
2022-12-06T12:47:39.644Z,17.3823
2022-12-06T13:02:41.529Z,19.4555
2022-12-06T13:17:43.395Z,19.5304
2022-12-06T13:32:45.235Z,19.4202
2022-12-06T13:47:47.097Z,19.8232
2022-12-06T14:02:49.067Z,19.4982
2022-12-06T14:18:03.177Z,18.2892
2022-12-06T14:33:06.377Z,17.7104
2022-12-06T14:48:08.230Z,17.5507
2022-12-06T15:03:10.109Z,16.8035
2022-12-06T15:18:11.963Z,17.5835
2022-12-06T15:33:13.830Z,16.2476
2022-12-06T15:48:15.658Z,17.9376
2022-12-06T16:03:17.538Z,16.7639
2022-12-06T16:18:19.433Z,16.5887
2022-12-06T16:33:21.291Z,16.3547
2022-12-06T16:48:23.139Z,16.4098
2022-12-06T17:03:24.994Z,16.1789
2022-12-06T17:18:26.851Z,17.0598
2022-12-06T17:33:28.699Z,15.5945
2022-12-06T17:48:35.293Z,17.1638
2022-12-06T18:03:38.848Z,15.948
2022-12-06T18:18:40.703Z,17.0728
2022-12-06T18:33:42.536Z,15.4998
2022-12-06T18:48:44.364Z,17.339
2022-12-06T19:03:46.221Z,15.5648
2022-12-06T19:18:48.064Z,16.8679
2022-12-06T19:33:49.913Z,15.064
2022-12-06T19:48:51.725Z,16.6308
2022-12-06T20:03:53.574Z,14.9959
2022-12-06T20:18:55.401Z,16.4129
2022-12-06T20:33:57.206Z,15.285
2022-12-06T20:48:59.015Z,16.4451
2022-12-06T21:04:00.849Z,14.5508
2022-12-06T21:19:02.713Z,16.3609
2022-12-06T21:34:04.555Z,14.817
2022-12-06T21:49:06.462Z,16.7119
2022-12-06T22:04:08.301Z,14.8269
2022-12-06T22:19:10.101Z,16.3807
2022-12-06T22:34:11.911Z,15.584
2022-12-06T22:49:17.852Z,16.6209
2022-12-06T23:04:20.146Z,15.2689
2022-12-06T23:19:21.993Z,16.0557
2022-12-06T23:34:23.850Z,15.311
2022-12-06T23:49:25.675Z,16.897
